Beef Island, British Virgin Islands

10:35 AM AST on July 25, 2016 (GMT -0400)
Beef I International | | Change Station

Elev 13 ft 18.44 °N, 64.54 °W | Updated 35 minutes ago

Partly Cloudy
Partly Cloudy
88 °F
Feels Like 98 °F
N
10
Wind Variable Wind from East

Today
High -- | Low -- °F
--% Chance of Precip.
Yesterday
High -- | Low -- °F
Precip. -- in
Pressure 30.04 in
Visibility 6.2 miles
Clouds Few 2000 ft
Heat Index 98 °F
Dew Point 75 °F
Humidity 66%
Rainfall 0.00 in
Snow Depth Not available.
5:53 AM 6:55 PM
Waning Gibbous, 65% visible
METAR TUPJ 251400Z 10009KT 9999 FEW020 31/24 Q1017 RMK A3004
Pressure 30.04 in
Visibility 6.2 miles
Clouds Few 2000 ft
Heat Index 98 °F
Dew Point 75 °F
Humidity 66%
Rainfall 0.00 in
Snow Depth Not available.
5:53 AM 6:55 PM
Waning Gibbous, 65% visible
METAR TUPJ 251400Z 10009KT 9999 FEW020 31/24 Q1017 RMK A3004

10-Day Weather Forecast

Almanac

Astronomy

Jul. 25, 2016 Rise Set
Actual Time
Civil Twilight
Nautical Twilight
Astronomical Twilight
Moon
Length of Visible Light
Length of Day
Tomorrow will be .
, % of the Moon is Illuminated

Today's Extremes

Country Highs Country Lows

Community

WunderPhotos

Upload Photos

1,927,305 photos uploaded!

WunderBlog® & News

Nearby

Air Quality

  Air Quality AQ Index Pollutant
Not available.

Snow Depth

Station Depth Elevation

Earthquake Activity

City Distance Mag. Time & Date
Minimum magnitude displayed is 2.5.

Coastal Water Temperatures

Place Temperature

Stations

Nearby Weather Stations

Station Location Temp. Windchill Dew Point Humidity Wind Precip. Elev Updated Type